Time;durP1;ratioP1;P1;durP2;ratioP2;P2;SDS_P1;SDS_P2;PMS_P1;PMS_P2;Temp;Humidity;BMP_temperature;BMP_pressure;BME280_temperature;BME280_humidity;BME280_pressure;Samples;Min_cycle;Max_cycle;Signal;HPM_P1;HPM_P2
2023/07/16 00:01:57;;;;;;;3.13;2.83;;;27.70;48.90;;;;;;5057158;28;20183;-68
2023/07/16 00:04:23;;;;;;;3.43;3.13;;;27.70;48.90;;;;;;5057536;28;20197;-68
2023/07/16 00:06:48;;;;;;;3.50;3.20;;;27.70;48.90;;;;;;5055610;28;20191;-65
2023/07/16 00:09:14;;;;;;;3.60;3.30;;;27.70;48.90;;;;;;5057507;28;20175;-68
2023/07/16 00:11:40;;;;;;;3.80;2.93;;;27.70;49.50;;;;;;5057840;28;20207;-68
2023/07/16 00:14:05;;;;;;;3.60;3.30;;;27.70;48.90;;;;;;5056803;28;20228;-68
2023/07/16 00:16:31;;;;;;;3.30;3.00;;;27.70;48.90;;;;;;5056995;28;20186;-68
2023/07/16 00:18:57;;;;;;;3.17;2.87;;;27.70;48.90;;;;;;5057212;28;20187;-68
2023/07/16 00:21:23;;;;;;;3.40;3.10;;;27.70;49.00;;;;;;5056884;28;20171;-65
2023/07/16 00:23:49;;;;;;;3.30;3.00;;;27.70;48.90;;;;;;5057069;28;20309;-68
2023/07/16 00:26:14;;;;;;;3.10;2.80;;;27.70;48.90;;;;;;5057443;28;20516;-68
2023/07/16 00:28:40;;;;;;;3.33;3.03;;;27.70;48.90;;;;;;5057077;28;20191;-68
2023/07/16 00:31:05;;;;;;;3.80;3.40;;;27.80;49.00;;;;;;5056551;28;20195;-68
2023/07/16 00:33:31;;;;;;;3.37;3.07;;;27.70;48.90;;;;;;5056559;28;20167;-68
2023/07/16 00:35:57;;;;;;;2.93;2.63;;;27.80;49.00;;;;;;5055627;28;20174;-67
2023/07/16 00:38:22;;;;;;;3.20;2.90;;;27.70;48.90;;;;;;5054813;28;20274;-66
2023/07/16 00:40:48;;;;;;;3.30;3.00;;;27.70;48.90;;;;;;5043347;28;20186;-66
2023/07/16 00:43:14;;;;;;;3.37;3.07;;;27.80;49.00;;;;;;5053890;28;20217;-67
2023/07/16 00:45:41;;;;;;;3.53;2.93;;;27.80;49.00;;;;;;5054389;28;20421;-66
2023/07/16 00:48:08;;;;;;;3.10;2.80;;;27.70;48.90;;;;;;5054591;28;20217;-67
2023/07/16 00:50:38;;;;;;;3.20;2.90;;;27.80;49.00;;;;;;5055663;28;20599;-67
2023/07/16 00:53:08;;;;;;;3.27;2.93;;;27.70;48.90;;;;;;5056084;28;20394;-67
2023/07/16 00:55:35;;;;;;;3.40;3.10;;;27.80;49.00;;;;;;5056782;28;20571;-66
2023/07/16 00:58:05;;;;;;;2.83;2.63;;;27.70;48.90;;;;;;5056568;28;20433;-67
2023/07/16 01:00:36;;;;;;;3.17;2.87;;;27.80;49.00;;;;;;5054529;28;20428;-67
2023/07/16 01:03:04;;;;;;;3.47;3.17;;;27.80;49.00;;;;;;5056725;28;20814;-66
2023/07/16 01:05:39;;;;;;;3.00;2.80;;;27.80;49.00;;;;;;5056112;28;20405;-67
2023/07/16 01:08:09;;;;;;;3.30;3.00;;;27.80;49.00;;;;;;5054292;28;20432;-66
2023/07/16 01:10:37;;;;;;;3.87;2.80;;;27.80;49.00;;;;;;5055742;28;20459;-67
2023/07/16 01:13:03;;;;;;;3.80;3.30;;;27.80;49.10;;;;;;5055552;28;20417;-67
2023/07/16 01:15:28;;;;;;;3.60;3.30;;;27.80;49.10;;;;;;5055862;28;20409;-67
2023/07/16 01:17:54;;;;;;;3.23;2.93;;;27.70;49.00;;;;;;5054989;28;20692;-67
2023/07/16 01:20:20;;;;;;;2.73;2.53;;;27.70;49.00;;;;;;5053972;28;20167;-67
2023/07/16 01:23:26;;;;;;;2.90;2.67;;;27.80;49.00;;;;;;5054894;28;20253;-67
2023/07/16 01:25:55;;;;;;;3.53;3.23;;;27.80;49.00;;;;;;5056017;28;20163;-65
2023/07/16 01:28:48;;;;;;;3.17;2.87;;;27.70;49.00;;;;;;5055385;28;20425;-67
2023/07/16 01:31:17;;;;;;;3.20;3.00;;;27.70;49.00;;;;;;5054795;28;20449;-67
2023/07/16 01:33:42;;;;;;;3.03;2.73;;;27.70;49.00;;;;;;5055518;28;20440;-66
2023/07/16 01:36:09;;;;;;;2.93;2.63;;;27.70;49.00;;;;;;5054223;28;20410;-66
2023/07/16 01:38:35;;;;;;;3.07;2.70;;;27.70;49.00;;;;;;5054851;28;20512;-66
2023/07/16 01:41:01;;;;;;;3.37;3.07;;;27.70;49.00;;;;;;5055379;28;20409;-66
2023/07/16 01:43:27;;;;;;;2.83;2.60;;;27.70;49.00;;;;;;5055336;28;20539;-66
2023/07/16 01:45:52;;;;;;;3.70;2.93;;;27.80;49.10;;;;;;5048891;28;20496;-67
2023/07/16 01:48:36;;;;;;;3.20;2.90;;;27.70;49.00;;;;;;5035155;28;20254;-65
2023/07/16 01:51:03;;;;;;;3.10;2.80;;;27.70;49.60;;;;;;5034710;28;20282;-67
2023/07/16 01:53:29;;;;;;;2.50;2.30;;;27.80;49.10;;;;;;5033183;28;20414;-67
2023/07/16 01:55:54;;;;;;;2.80;2.60;;;27.70;49.00;;;;;;5032969;28;20438;-67
2023/07/16 01:58:20;;;;;;;3.30;2.70;;;27.70;49.00;;;;;;5032658;28;20188;-67
2023/07/16 02:00:46;;;;;;;3.00;2.70;;;27.80;49.10;;;;;;5032866;28;20237;-66
2023/07/16 02:03:11;;;;;;;2.93;2.60;;;27.70;49.00;;;;;;5034039;28;20585;-67
2023/07/16 02:05:37;;;;;;;2.63;2.37;;;27.70;49.10;;;;;;5034404;28;20191;-67
2023/07/16 02:08:03;;;;;;;2.60;2.40;;;27.80;49.10;;;;;;5034650;28;20187;-67
2023/07/16 02:10:28;;;;;;;2.60;2.40;;;27.70;49.00;;;;;;5034460;28;20591;-67
2023/07/16 02:12:54;;;;;;;3.30;3.00;;;27.70;49.00;;;;;;5034624;28;20557;-67
2023/07/16 02:15:19;;;;;;;2.37;2.17;;;27.70;49.00;;;;;;5034615;28;20654;-67
2023/07/16 02:17:45;;;;;;;3.60;2.60;;;27.80;49.10;;;;;;5033829;28;20202;-67
2023/07/16 02:20:11;;;;;;;2.97;2.77;;;27.70;49.10;;;;;;5034635;28;20168;-67
2023/07/16 02:22:37;;;;;;;2.80;2.40;;;27.80;49.10;;;;;;5034125;28;20175;-67
2023/07/16 02:25:03;;;;;;;2.50;2.30;;;27.80;49.10;;;;;;5034067;28;20418;-67
2023/07/16 02:27:29;;;;;;;2.57;2.13;;;27.70;49.10;;;;;;5034424;28;20218;-67
2023/07/16 02:29:55;;;;;;;2.67;2.40;;;27.80;49.10;;;;;;5034276;28;20600;-67
2023/07/16 02:32:21;;;;;;;2.77;2.53;;;27.80;49.10;;;;;;5033525;28;20571;-67
2023/07/16 02:34:46;;;;;;;3.40;3.10;;;27.80;49.10;;;;;;5034025;28;20413;-67
2023/07/16 02:37:12;;;;;;;2.47;2.10;;;27.80;49.10;;;;;;5033880;28;20241;-67
2023/07/16 02:39:39;;;;;;;2.67;2.47;;;27.70;49.10;;;;;;5033744;28;20210;-67
2023/07/16 02:42:04;;;;;;;3.00;2.70;;;27.80;49.10;;;;;;5033614;28;20531;-67
2023/07/16 02:44:30;;;;;;;2.73;2.53;;;27.80;49.10;;;;;;5033888;28;20425;-67
2023/07/16 02:46:56;;;;;;;2.53;2.33;;;27.70;49.10;;;;;;5033597;28;20237;-67
2023/07/16 02:49:21;;;;;;;3.10;2.70;;;27.80;49.10;;;;;;5033669;28;20215;-67
2023/07/16 02:51:47;;;;;;;2.73;2.53;;;27.80;49.10;;;;;;5033719;28;20196;-67
2023/07/16 02:54:12;;;;;;;2.73;2.53;;;27.70;49.10;;;;;;5033401;28;20179;-66
2023/07/16 02:56:38;;;;;;;2.40;2.20;;;27.80;49.20;;;;;;5033638;28;20543;-67
2023/07/16 02:59:03;;;;;;;2.87;2.67;;;27.70;49.10;;;;;;5033397;28;20300;-67
2023/07/16 03:01:29;;;;;;;2.30;2.10;;;27.70;49.10;;;;;;5033562;28;20172;-67
2023/07/16 03:03:55;;;;;;;2.70;2.50;;;27.70;49.10;;;;;;5033963;28;20180;-66
2023/07/16 03:06:20;;;;;;;2.60;2.40;;;27.80;49.20;;;;;;5033543;28;20225;-67
2023/07/16 03:08:46;;;;;;;2.23;2.03;;;27.70;49.10;;;;;;5033866;28;20209;-67
2023/07/16 03:11:12;;;;;;;2.50;2.30;;;27.80;49.20;;;;;;5033234;28;20191;-67
2023/07/16 03:13:37;;;;;;;2.70;2.50;;;27.80;49.20;;;;;;5033366;28;20259;-67
2023/07/16 03:16:03;;;;;;;2.77;2.47;;;27.80;49.20;;;;;;5033055;28;20183;-67
2023/07/16 03:18:29;;;;;;;2.70;2.50;;;27.80;49.20;;;;;;5033211;28;20242;-66
2023/07/16 03:20:56;;;;;;;2.50;2.30;;;27.80;49.20;;;;;;5033236;28;20278;-67
2023/07/16 03:23:23;;;;;;;3.33;2.60;;;27.80;49.20;;;;;;5032563;28;20422;-67
2023/07/16 03:25:49;;;;;;;2.73;2.30;;;27.80;49.20;;;;;;5033197;28;20449;-67
2023/07/16 03:28:14;;;;;;;2.73;2.40;;;27.80;49.20;;;;;;5032773;28;20431;-67
2023/07/16 03:30:40;;;;;;;2.40;2.20;;;27.70;49.10;;;;;;5032708;28;20203;-67
2023/07/16 03:33:05;;;;;;;2.50;2.07;;;27.80;49.20;;;;;;5033039;28;20171;-67
2023/07/16 03:35:31;;;;;;;2.80;2.60;;;27.80;49.20;;;;;;5033165;28;20179;-67
2023/07/16 03:37:57;;;;;;;2.73;2.50;;;27.80;49.20;;;;;;5032892;28;20202;-67
2023/07/16 03:40:26;;;;;;;2.50;2.30;;;27.80;49.20;;;;;;5033684;28;20551;-67
2023/07/16 03:42:52;;;;;;;2.70;2.50;;;27.80;49.20;;;;;;5033187;28;20183;-67
2023/07/16 03:45:18;;;;;;;2.93;2.63;;;27.70;49.10;;;;;;5031642;28;20406;-67
2023/07/16 03:47:44;;;;;;;2.60;2.40;;;27.70;49.10;;;;;;5032680;28;20429;-67
2023/07/16 03:50:10;;;;;;;2.30;2.10;;;27.80;49.20;;;;;;5032635;28;20188;-66
2023/07/16 03:52:35;;;;;;;2.37;2.13;;;27.70;49.10;;;;;;5032600;28;20591;-67
2023/07/16 03:55:01;;;;;;;2.80;2.60;;;27.70;49.10;;;;;;5032942;28;20414;-66
2023/07/16 03:57:29;;;;;;;2.70;2.50;;;27.80;49.20;;;;;;5032609;28;20192;-67
2023/07/16 03:59:54;;;;;;;2.40;2.20;;;27.80;49.20;;;;;;5032968;28;20766;-67
2023/07/16 04:02:20;;;;;;;2.43;2.23;;;27.80;49.20;;;;;;5033101;28;20418;-67
2023/07/16 04:04:46;;;;;;;2.37;2.17;;;27.80;49.20;;;;;;5033314;28;20184;-66
2023/07/16 04:07:12;;;;;;;3.23;2.53;;;27.80;49.20;;;;;;5033103;28;20530;-67
2023/07/16 04:09:38;;;;;;;2.30;2.10;;;27.80;49.20;;;;;;5034077;28;20476;-67
2023/07/16 04:12:05;;;;;;;2.80;2.47;;;27.70;49.10;;;;;;5036936;28;20195;-67
2023/07/16 04:14:30;;;;;;;3.37;2.47;;;27.80;49.50;;;;;;5036499;28;20418;-67
2023/07/16 04:16:56;;;;;;;2.67;2.43;;;27.80;49.20;;;;;;5036424;28;20406;-67
2023/07/16 04:19:21;;;;;;;2.20;2.00;;;27.80;49.20;;;;;;5036947;28;20210;-67
2023/07/16 04:21:47;;;;;;;2.20;2.00;;;27.80;49.20;;;;;;5034891;28;20186;-67
2023/07/16 04:24:13;;;;;;;2.23;2.03;;;27.80;49.20;;;;;;5036645;28;20207;-67
2023/07/16 04:26:38;;;;;;;3.00;2.60;;;27.80;49.20;;;;;;5036214;28;20279;-67
2023/07/16 04:29:04;;;;;;;2.70;2.50;;;27.80;49.20;;;;;;5036415;28;20196;-67
2023/07/16 04:31:29;;;;;;;3.07;2.43;;;27.80;49.20;;;;;;5036594;28;20588;-67
2023/07/16 04:33:55;;;;;;;2.43;2.17;;;27.80;49.20;;;;;;5036627;28;20168;-66
2023/07/16 04:36:21;;;;;;;2.80;2.60;;;27.80;49.10;;;;;;5036388;28;20247;-67
2023/07/16 04:38:46;;;;;;;2.43;2.23;;;27.80;49.10;;;;;;5036643;28;20652;-67
2023/07/16 04:41:12;;;;;;;2.17;1.97;;;27.80;49.20;;;;;;5036458;28;20176;-67
2023/07/16 04:43:38;;;;;;;2.20;2.00;;;27.80;49.20;;;;;;5037023;28;20172;-67
2023/07/16 04:46:04;;;;;;;2.37;2.17;;;27.80;49.20;;;;;;5034977;28;20425;-67
2023/07/16 04:48:30;;;;;;;2.50;2.30;;;27.80;49.20;;;;;;5036131;28;20538;-67
2023/07/16 04:50:55;;;;;;;2.77;2.43;;;27.80;49.20;;;;;;5035821;28;20279;-67
2023/07/16 04:53:22;;;;;;;2.10;1.90;;;27.80;49.20;;;;;;5034106;28;20176;-66
2023/07/16 04:55:48;;;;;;;2.47;2.27;;;27.80;49.20;;;;;;5051123;28;20233;-67
2023/07/16 04:58:14;;;;;;;2.20;2.00;;;27.80;49.10;;;;;;5053999;28;20437;-68
2023/07/16 05:00:40;;;;;;;2.40;2.20;;;27.80;49.10;;;;;;5055074;28;20206;-67
2023/07/16 05:03:05;;;;;;;3.03;2.30;;;27.80;49.10;;;;;;5055150;28;20961;-67
2023/07/16 05:05:31;;;;;;;2.63;2.43;;;27.80;49.10;;;;;;5055613;28;20178;-67
2023/07/16 05:07:57;;;;;;;2.67;2.20;;;27.80;49.10;;;;;;5055933;28;20199;-67
2023/07/16 05:10:23;;;;;;;2.30;2.10;;;27.80;49.10;;;;;;5055568;28;20179;-67
2023/07/16 05:12:48;;;;;;;2.03;1.83;;;27.80;49.20;;;;;;5055409;28;20258;-67
2023/07/16 05:15:14;;;;;;;2.20;1.83;;;27.80;49.10;;;;;;5055039;28;20497;-67
2023/07/16 05:17:40;;;;;;;2.20;2.00;;;27.90;49.20;;;;;;5055996;28;20691;-65
2023/07/16 05:20:06;;;;;;;2.43;2.17;;;27.80;49.20;;;;;;5055449;28;20345;-67
2023/07/16 05:22:32;;;;;;;2.70;2.50;;;27.80;49.20;;;;;;5055355;28;20272;-67
2023/07/16 05:24:58;;;;;;;2.30;2.10;;;27.80;49.20;;;;;;5055610;28;20468;-67
2023/07/16 05:27:23;;;;;;;2.13;1.93;;;27.90;49.30;;;;;;5055689;28;20452;-67
2023/07/16 05:29:49;;;;;;;1.83;1.73;;;27.90;49.30;;;;;;5055130;28;20191;-67
2023/07/16 05:32:15;;;;;;;2.23;2.03;;;27.80;49.30;;;;;;5055520;28;20224;-67
2023/07/16 05:34:40;;;;;;;2.30;2.10;;;27.90;49.40;;;;;;5055163;28;20175;-67
2023/07/16 05:37:06;;;;;;;2.57;2.37;;;27.90;49.40;;;;;;5054877;28;20179;-66
2023/07/16 05:39:31;;;;;;;2.23;2.03;;;27.90;49.40;;;;;;5054597;28;20175;-67
2023/07/16 05:41:57;;;;;;;2.27;2.07;;;27.90;49.40;;;;;;5054909;28;20183;-67
2023/07/16 05:44:23;;;;;;;2.23;2.03;;;27.90;49.40;;;;;;5054763;28;20206;-67
2023/07/16 05:46:48;;;;;;;1.83;1.70;;;27.90;49.40;;;;;;5053986;28;20189;-67
2023/07/16 05:49:14;;;;;;;1.90;1.70;;;27.90;49.40;;;;;;5054335;28;20248;-67
2023/07/16 05:51:40;;;;;;;2.30;2.10;;;27.80;49.40;;;;;;5054562;28;20194;-67
2023/07/16 05:54:06;;;;;;;2.00;1.80;;;27.80;49.40;;;;;;5054523;28;20529;-67
2023/07/16 05:56:32;;;;;;;2.07;1.87;;;27.90;49.50;;;;;;5054515;28;20177;-66
2023/07/16 05:58:57;;;;;;;2.33;2.13;;;27.90;49.50;;;;;;5052778;28;20796;-66
2023/07/16 06:01:23;;;;;;;2.00;1.80;;;27.90;49.50;;;;;;5054297;28;20254;-67
2023/07/16 06:03:48;;;;;;;2.20;2.00;;;27.80;49.40;;;;;;5054560;28;20262;-67
2023/07/16 06:06:14;;;;;;;2.30;2.10;;;27.90;49.50;;;;;;5054465;28;20194;-67
2023/07/16 06:08:39;;;;;;;2.10;1.90;;;27.90;49.50;;;;;;5053945;28;20561;-67
2023/07/16 06:11:05;;;;;;;1.70;1.60;;;27.80;49.40;;;;;;5053872;28;20198;-67
2023/07/16 06:13:31;;;;;;;1.57;1.47;;;27.90;49.50;;;;;;5053993;28;20171;-67
2023/07/16 06:15:57;;;;;;;2.33;1.87;;;27.90;49.50;;;;;;5053899;28;20177;-66
2023/07/16 06:18:22;;;;;;;2.03;1.83;;;27.80;49.40;;;;;;5046503;28;20708;-67
2023/07/16 06:20:48;;;;;;;1.93;1.73;;;27.80;49.40;;;;;;5034071;28;20179;-67
2023/07/16 06:23:16;;;;;;;2.20;2.00;;;27.90;49.40;;;;;;5032800;28;20183;-67
2023/07/16 06:25:46;;;;;;;1.90;1.70;;;27.90;49.50;;;;;;5032551;28;20438;-67
2023/07/16 06:28:12;;;;;;;1.70;1.60;;;27.90;49.50;;;;;;5034303;28;20449;-67
2023/07/16 06:30:38;;;;;;;1.87;1.67;;;27.90;49.40;;;;;;5033425;28;20446;-67
2023/07/16 06:33:03;;;;;;;1.70;1.60;;;27.90;49.50;;;;;;5031637;28;20576;-67
2023/07/16 06:35:29;;;;;;;1.67;1.57;;;27.90;49.50;;;;;;5033684;28;20171;-67
2023/07/16 06:37:54;;;;;;;2.00;1.80;;;27.80;49.50;;;;;;5034031;28;20631;-67
2023/07/16 06:40:20;;;;;;;2.00;1.80;;;27.90;49.60;;;;;;5034367;28;20180;-67
2023/07/16 06:42:46;;;;;;;1.77;1.67;;;27.90;49.50;;;;;;5033474;28;20589;-67
2023/07/16 06:45:11;;;;;;;1.90;1.80;;;27.90;49.50;;;;;;5033322;28;20171;-67
2023/07/16 06:47:37;;;;;;;2.13;1.93;;;27.90;49.50;;;;;;5033430;28;20191;-67
2023/07/16 06:50:03;;;;;;;1.53;1.43;;;27.80;49.50;;;;;;5033369;28;20181;-67
2023/07/16 06:52:30;;;;;;;1.87;1.73;;;27.90;49.60;;;;;;5031762;28;20724;-67
2023/07/16 06:54:57;;;;;;;2.10;1.70;;;27.90;49.60;;;;;;5031870;28;20799;-67
2023/07/16 06:57:23;;;;;;;1.97;1.87;;;27.90;49.60;;;;;;5031700;28;20430;-67
2023/07/16 06:59:49;;;;;;;2.07;1.87;;;27.90;49.60;;;;;;5031926;28;20942;-67
2023/07/16 07:02:16;;;;;;;1.97;1.80;;;27.90;49.60;;;;;;5031443;28;20402;-67
2023/07/16 07:04:41;;;;;;;2.30;2.07;;;27.90;49.60;;;;;;5031579;28;20848;-66
2023/07/16 07:07:07;;;;;;;2.30;1.87;;;27.90;49.60;;;;;;5031839;28;20434;-66
2023/07/16 07:09:33;;;;;;;2.13;1.93;;;27.90;49.60;;;;;;5031533;28;20191;-66
2023/07/16 07:11:58;;;;;;;1.90;1.70;;;27.90;49.50;;;;;;5031662;28;20207;-65
2023/07/16 07:14:24;;;;;;;2.00;1.70;;;27.90;49.60;;;;;;5031841;28;20645;-66
2023/07/16 07:16:49;;;;;;;2.27;1.87;;;27.90;49.60;;;;;;5032385;28;20163;-67
2023/07/16 07:19:15;;;;;;;2.30;2.03;;;27.90;49.60;;;;;;5032869;28;20243;-67
2023/07/16 07:21:40;;;;;;;2.50;1.90;;;27.90;49.60;;;;;;5031955;28;20172;-67
2023/07/16 07:24:06;;;;;;;2.03;1.83;;;27.90;49.60;;;;;;5032415;28;20207;-66
2023/07/16 07:26:32;;;;;;;3.07;2.20;;;27.90;49.60;;;;;;5032387;28;20179;-66
2023/07/16 07:28:57;;;;;;;2.53;2.33;;;27.90;49.60;;;;;;5032481;28;20198;-66
2023/07/16 07:31:23;;;;;;;2.20;2.00;;;27.90;49.60;;;;;;5032496;28;20202;-66
2023/07/16 07:33:48;;;;;;;2.17;1.93;;;27.90;49.60;;;;;;5032370;28;20168;-66
2023/07/16 07:36:14;;;;;;;2.23;2.00;;;27.90;49.60;;;;;;5032242;28;20505;-66
2023/07/16 07:38:39;;;;;;;3.30;1.87;;;27.90;49.60;;;;;;5032093;28;20191;-66
2023/07/16 07:41:06;;;;;;;3.10;2.20;;;27.90;49.60;;;;;;5032112;28;20172;-66
2023/07/16 07:43:31;;;;;;;2.00;1.80;;;27.90;49.60;;;;;;5032366;28;20187;-66
2023/07/16 07:45:57;;;;;;;4.73;1.80;;;27.90;49.70;;;;;;5035510;28;20402;-66
2023/07/16 07:48:23;;;;;;;2.07;1.80;;;27.90;49.70;;;;;;5034414;28;20206;-66
2023/07/16 07:50:48;;;;;;;2.67;2.00;;;27.90;49.60;;;;;;5035524;28;20257;-66
2023/07/16 07:53:18;;;;;;;2.63;2.40;;;27.90;49.60;;;;;;5035630;28;20566;-66
2023/07/16 07:55:44;;;;;;;2.20;2.00;;;27.90;49.60;;;;;;5035646;28;20675;-66
2023/07/16 07:58:11;;;;;;;2.23;1.80;;;27.90;49.60;;;;;;5035598;28;20426;-67
2023/07/16 08:00:36;;;;;;;2.60;1.70;;;27.90;49.60;;;;;;5035871;28;20483;-66
2023/07/16 08:03:02;;;;;;;2.20;2.00;;;27.90;49.60;;;;;;5035792;28;20406;-66
2023/07/16 08:05:28;;;;;;;1.83;1.67;;;27.90;50.20;;;;;;5035843;28;20706;-66
2023/07/16 08:07:55;;;;;;;3.17;2.00;;;27.90;49.70;;;;;;5036048;28;20422;-66
2023/07/16 08:10:21;;;;;;;2.10;1.60;;;27.90;49.70;;;;;;5034562;28;20614;-66
2023/07/16 08:12:47;;;;;;;2.20;1.93;;;27.90;49.70;;;;;;5035447;28;20446;-66
2023/07/16 08:15:15;;;;;;;2.10;1.80;;;27.90;49.70;;;;;;5035461;28;20453;-67
2023/07/16 08:17:42;;;;;;;2.50;1.87;;;28.00;49.70;;;;;;5035512;28;20230;-67
2023/07/16 08:20:08;;;;;;;1.90;1.70;;;28.00;49.70;;;;;;5035685;28;20421;-66
2023/07/16 08:22:34;;;;;;;2.13;1.83;;;27.90;49.60;;;;;;5035046;28;20497;-66
2023/07/16 08:24:59;;;;;;;2.50;2.13;;;28.00;49.70;;;;;;5035618;28;20450;-67
2023/07/16 08:27:25;;;;;;;2.20;1.70;;;28.00;49.70;;;;;;5035317;28;20196;-66
2023/07/16 08:29:50;;;;;;;2.40;2.20;;;28.00;49.70;;;;;;5034909;28;20167;-66
2023/07/16 08:32:16;;;;;;;1.70;1.60;;;28.00;49.70;;;;;;5034976;28;20203;-65
2023/07/16 08:34:41;;;;;;;4.07;1.80;;;27.90;50.20;;;;;;5034843;28;20172;-65
2023/07/16 08:37:07;;;;;;;3.20;1.83;;;27.90;49.60;;;;;;5034672;28;20203;-66
2023/07/16 08:39:33;;;;;;;1.87;1.77;;;27.90;49.60;;;;;;5033800;28;20546;-67
2023/07/16 08:41:59;;;;;;;1.97;1.77;;;27.90;49.60;;;;;;5054296;28;20183;-66
2023/07/16 08:44:25;;;;;;;2.73;2.00;;;28.00;49.80;;;;;;5054573;28;20421;-66
2023/07/16 08:46:51;;;;;;;2.17;1.97;;;28.00;49.80;;;;;;5053134;28;20185;-66
2023/07/16 08:49:18;;;;;;;2.20;1.97;;;27.90;49.70;;;;;;5054552;28;20293;-66
2023/07/16 08:51:47;;;;;;;2.37;1.63;;;28.00;49.70;;;;;;5054669;28;20918;-66
2023/07/16 08:54:15;;;;;;;1.80;1.70;;;28.00;49.80;;;;;;5046526;28;20536;-67
2023/07/16 08:56:42;;;;;;;1.73;1.63;;;28.00;49.70;;;;;;5054691;28;20416;-67
2023/07/16 08:59:08;;;;;;;1.93;1.73;;;28.00;49.80;;;;;;5048320;28;20531;-67
2023/07/16 09:01:33;;;;;;;1.63;1.50;;;28.00;49.70;;;;;;5055158;28;20424;-67
2023/07/16 09:03:59;;;;;;;2.00;1.80;;;28.00;49.60;;;;;;5054699;28;20417;-67
2023/07/16 09:06:25;;;;;;;1.97;1.80;;;28.00;49.70;;;;;;5053940;28;20444;-67
2023/07/16 09:08:50;;;;;;;1.90;1.60;;;28.00;49.70;;;;;;5054036;28;20660;-67
2023/07/16 09:11:21;;;;;;;1.60;1.40;;;28.00;49.70;;;;;;5054020;28;20207;-67
2023/07/16 09:13:46;;;;;;;2.50;2.20;;;28.00;49.70;;;;;;5053951;28;20179;-67
2023/07/16 09:16:12;;;;;;;2.10;1.90;;;28.00;49.70;;;;;;5054420;28;20420;-67
2023/07/16 09:18:40;;;;;;;1.83;1.70;;;28.00;49.60;;;;;;5054767;28;20186;-67
2023/07/16 09:21:06;;;;;;;1.63;1.47;;;28.00;49.70;;;;;;5053989;28;20910;-67
2023/07/16 09:23:33;;;;;;;2.03;1.77;;;28.00;49.70;;;;;;5054540;28;20485;-66
2023/07/16 09:25:58;;;;;;;3.00;1.73;;;28.00;49.70;;;;;;5054905;28;20519;-67
2023/07/16 09:28:24;;;;;;;2.03;1.77;;;28.00;49.70;;;;;;5054081;28;20425;-67
2023/07/16 09:30:51;;;;;;;2.00;1.80;;;28.00;49.70;;;;;;5053615;28;20278;-66
2023/07/16 09:33:19;;;;;;;1.73;1.43;;;28.00;49.70;;;;;;5054208;28;20416;-67
2023/07/16 09:35:48;;;;;;;1.87;1.77;;;28.00;49.70;;;;;;5054019;28;20416;-67
2023/07/16 09:38:14;;;;;;;2.10;1.90;;;28.00;49.70;;;;;;5053484;28;20900;-66
2023/07/16 09:40:42;;;;;;;2.40;1.83;;;28.00;49.70;;;;;;5053332;28;20410;-66
2023/07/16 09:43:08;;;;;;;1.70;1.60;;;28.00;49.70;;;;;;5053193;28;20179;-66
2023/07/16 09:45:35;;;;;;;1.70;1.47;;;28.00;49.70;;;;;;5053355;28;20422;-67
2023/07/16 09:48:01;;;;;;;4.60;1.50;;;28.00;49.70;;;;;;5051819;28;20437;-66
2023/07/16 09:50:33;;;;;;;1.70;1.60;;;28.00;49.80;;;;;;5052956;28;20463;-66
2023/07/16 09:52:59;;;;;;;1.83;1.57;;;28.00;49.80;;;;;;5053043;28;20422;-66
2023/07/16 09:55:25;;;;;;;1.73;1.63;;;28.00;49.70;;;;;;5052502;28;20998;-66
2023/07/16 09:57:57;;;;;;;1.50;1.40;;;28.00;49.70;;;;;;5052654;28;20449;-66
2023/07/16 10:00:25;;;;;;;1.90;1.70;;;28.00;49.70;;;;;;5052451;28;20405;-66
2023/07/16 10:02:54;;;;;;;1.60;1.50;;;28.00;49.70;;;;;;5052143;28;20398;-66
2023/07/16 10:05:25;;;;;;;2.03;1.60;;;28.00;49.70;;;;;;5052215;28;20437;-66
2023/07/16 10:08:00;;;;;;;1.80;1.70;;;28.00;49.80;;;;;;5051555;28;20910;-66
2023/07/16 10:10:40;;;;;;;2.27;1.87;;;28.00;49.70;;;;;;5052191;28;20884;-65
2023/07/16 10:13:08;;;;;;;2.23;2.03;;;28.00;49.80;;;;;;5052519;28;20887;-66
2023/07/16 10:15:33;;;;;;;2.07;1.63;;;28.00;49.70;;;;;;5052535;28;20405;-66
2023/07/16 10:17:59;;;;;;;2.33;1.97;;;28.00;49.80;;;;;;5052493;28;20428;-66
2023/07/16 10:20:42;;;;;;;2.70;1.63;;;28.00;49.80;;;;;;5052339;28;20163;-66
2023/07/16 10:23:15;;;;;;;1.90;1.70;;;28.00;50.30;;;;;;5052239;28;20159;-66
2023/07/16 10:25:57;;;;;;;2.47;1.80;;;28.00;49.80;;;;;;5052169;28;20910;-66
2023/07/16 10:28:22;;;;;;;2.53;1.70;;;28.00;49.80;;;;;;5052182;28;20920;-66
2023/07/16 10:30:50;;;;;;;1.60;1.50;;;28.00;49.70;;;;;;5052375;28;20476;-66
2023/07/16 10:33:16;;;;;;;2.10;1.90;;;28.00;49.70;;;;;;5050919;28;20171;-66
2023/07/16 10:35:47;;;;;;;1.80;1.70;;;28.00;49.70;;;;;;5051854;28;20432;-66
2023/07/16 10:38:13;;;;;;;2.30;1.80;;;28.00;49.80;;;;;;5051812;28;20253;-65
2023/07/16 10:40:45;;;;;;;1.53;1.40;;;28.00;49.80;;;;;;5051831;28;20410;-65
2023/07/16 10:43:12;;;;;;;1.67;1.50;;;28.00;49.80;;;;;;5052196;28;20240;-65
2023/07/16 10:45:38;;;;;;;2.00;1.67;;;28.00;49.80;;;;;;5051711;28;20423;-65
2023/07/16 10:48:04;;;;;;;2.03;1.70;;;28.00;49.80;;;;;;5051704;28;20443;-65
2023/07/16 10:50:33;;;;;;;1.87;1.67;;;28.00;49.80;;;;;;5051341;28;20501;-66
2023/07/16 10:52:59;;;;;;;1.77;1.67;;;28.00;49.80;;;;;;5052037;28;20887;-66
2023/07/16 10:55:27;;;;;;;2.30;1.90;;;28.00;49.80;;;;;;5051740;28;20398;-66
2023/07/16 10:57:53;;;;;;;2.50;1.90;;;28.00;49.80;;;;;;5051631;28;20201;-66
2023/07/16 11:00:21;;;;;;;1.83;1.50;;;28.00;49.80;;;;;;5053732;28;20966;-67
2023/07/16 11:02:47;;;;;;;5.37;1.83;;;28.00;49.80;;;;;;5053542;28;20986;-67
2023/07/16 11:05:16;;;;;;;1.90;1.70;;;28.00;49.30;;;;;;5053908;28;20404;-66
2023/07/16 11:07:47;;;;;;;2.03;1.83;;;28.00;48.80;;;;;;5053139;28;20421;-67
2023/07/16 11:10:14;;;;;;;2.63;1.90;;;28.00;48.60;;;;;;5053565;28;20409;-67
2023/07/16 11:12:42;;;;;;;2.20;2.00;;;28.00;48.40;;;;;;5052820;28;20452;-67
2023/07/16 11:15:08;;;;;;;3.73;1.80;;;28.00;48.30;;;;;;5053719;28;20444;-67
2023/07/16 11:17:36;;;;;;;4.63;2.30;;;27.90;48.10;;;;;;5053511;28;20571;-67
2023/07/16 11:20:03;;;;;;;3.97;2.20;;;27.90;48.00;;;;;;5056834;28;20409;-67
2023/07/16 11:22:29;;;;;;;4.60;2.80;;;27.90;48.00;;;;;;5057679;28;20417;-66
2023/07/16 11:24:55;;;;;;;2.33;2.10;;;27.90;47.90;;;;;;5056416;28;20480;-66
2023/07/16 11:27:27;;;;;;;2.87;2.10;;;27.90;48.00;;;;;;5056630;28;20565;-67
2023/07/16 11:29:58;;;;;;;2.93;2.20;;;27.90;48.00;;;;;;5057108;28;20433;-67
2023/07/16 11:32:26;;;;;;;2.80;1.97;;;27.80;47.90;;;;;;5057310;28;20457;-65
2023/07/16 11:34:53;;;;;;;2.93;2.30;;;27.80;47.90;;;;;;5056649;28;20474;-67
2023/07/16 11:37:20;;;;;;;2.50;2.17;;;27.80;47.90;;;;;;5056887;28;20499;-66
2023/07/16 11:39:47;;;;;;;4.00;1.90;;;27.80;48.00;;;;;;5056860;28;20470;-66
2023/07/16 11:42:12;;;;;;;2.93;2.03;;;27.80;48.10;;;;;;5057311;28;20486;-65
2023/07/16 11:44:38;;;;;;;4.20;2.17;;;27.80;48.00;;;;;;5057204;28;20526;-67
2023/07/16 11:47:04;;;;;;;2.70;2.10;;;27.80;47.90;;;;;;5057004;28;20264;-67
2023/07/16 11:49:29;;;;;;;2.67;2.33;;;27.80;47.90;;;;;;5057063;28;20190;-65
2023/07/16 11:51:56;;;;;;;2.53;2.13;;;27.80;47.90;;;;;;5056634;28;20224;-67
2023/07/16 11:54:22;;;;;;;4.20;2.03;;;27.80;47.90;;;;;;5053177;28;20229;-67
2023/07/16 11:56:48;;;;;;;2.30;2.10;;;27.80;48.00;;;;;;5049548;28;20425;-66
2023/07/16 11:59:13;;;;;;;2.00;1.80;;;27.80;48.00;;;;;;5054357;28;20644;-66
2023/07/16 12:01:39;;;;;;;5.03;2.20;;;27.80;48.00;;;;;;5055229;28;20174;-67
2023/07/16 12:04:04;;;;;;;4.13;2.43;;;27.80;47.90;;;;;;5055530;28;20171;-67
2023/07/16 12:06:30;;;;;;;3.27;2.37;;;27.70;48.10;;;;;;5054257;28;20171;-66
2023/07/16 12:08:56;;;;;;;4.97;1.70;;;27.80;48.20;;;;;;5053371;28;20206;-67
2023/07/16 12:11:22;;;;;;;2.50;2.10;;;27.80;48.30;;;;;;5054602;28;20202;-67
2023/07/16 12:13:47;;;;;;;2.13;1.73;;;27.70;48.50;;;;;;5054108;28;20167;-66
2023/07/16 12:16:13;;;;;;;4.10;2.20;;;27.70;48.20;;;;;;5054624;28;20253;-66
2023/07/16 12:18:39;;;;;;;2.30;2.10;;;27.80;48.30;;;;;;5054415;28;20191;-67
2023/07/16 12:21:06;;;;;;;2.40;2.00;;;27.70;48.20;;;;;;5054584;28;20663;-67
2023/07/16 12:23:31;;;;;;;4.00;2.10;;;27.70;48.20;;;;;;5053173;28;20185;-67
2023/07/16 12:25:57;;;;;;;3.53;2.07;;;27.80;48.40;;;;;;5054301;28;20456;-66
2023/07/16 12:28:22;;;;;;;2.60;2.00;;;27.70;48.30;;;;;;5053349;28;20195;-66
2023/07/16 12:30:48;;;;;;;2.97;1.90;;;27.80;48.40;;;;;;5053732;28;20285;-67
2023/07/16 12:33:13;;;;;;;4.23;1.93;;;27.80;48.40;;;;;;5054300;28;20194;-67
2023/07/16 12:35:39;;;;;;;4.73;1.83;;;27.80;48.50;;;;;;5052980;28;20200;-67
2023/07/16 12:38:05;;;;;;;2.97;1.97;;;27.70;48.50;;;;;;5054234;28;20704;-67
2023/07/16 12:40:30;;;;;;;3.03;2.07;;;27.80;48.60;;;;;;5054194;28;20515;-67
2023/07/16 12:42:56;;;;;;;2.30;2.00;;;27.70;48.50;;;;;;5054159;28;20171;-67
2023/07/16 12:45:22;;;;;;;2.70;1.67;;;27.80;48.60;;;;;;5054147;28;20637;-67